Time;durP1;ratioP1;P1;durP2;ratioP2;P2;SDS_P1;SDS_P2;PMS_P1;PMS_P2;Temp;Humidity;BMP_temperature;BMP_pressure;BME280_temperature;BME280_humidity;BME280_pressure;Samples;Min_cycle;Max_cycle;Signal;HPM_P1;HPM_P2
2021/12/07 20:57:17;;;;;;;0.60;0.50;;;;;;;;;;7372139;19;132549;-15
2021/12/07 20:59:49;;;;;;;1.05;0.70;;;;;;;;;;7365137;19;153595;-13
2021/12/07 21:02:20;;;;;;;0.60;0.60;;;;;;;;;;7364798;19;162107;-13
2021/12/07 21:04:52;;;;;;;2.03;0.47;;;;;;;;;;7364519;19;162781;-13
2021/12/07 21:07:23;;;;;;;1.13;0.60;;;;;;;;;;7365163;19;153977;-14
2021/12/07 21:09:55;;;;;;;0.50;0.50;;;;;;;;;;7364781;19;153632;-16
2021/12/07 21:12:29;;;;;;;0.55;0.55;;;;;;;;;;7363891;19;162001;-15
2021/12/07 21:15:01;;;;;;;0.82;0.55;;;;;;;;;;7366091;19;162359;-14
2021/12/07 21:17:32;;;;;;;0.80;0.60;;;;;;;;;;7366693;19;154185;-14
2021/12/07 21:20:06;;;;;;;0.50;0.50;;;;;;;;;;7368118;19;153465;-17
2021/12/07 21:22:38;;;;;;;0.65;0.52;;;;;;;;;;7366552;19;161810;-14
2021/12/07 21:25:11;;;;;;;0.70;0.60;;;;;;;;;;7366246;19;162420;-14
2021/12/07 21:27:46;;;;;;;0.30;0.30;;;;;;;;;;7368260;19;154133;-14
2021/12/07 21:30:21;;;;;;;0.50;0.50;;;;;;;;;;7367518;19;153541;-14
2021/12/07 21:32:52;;;;;;;0.45;0.45;;;;;;;;;;7367189;19;161949;-14
2021/12/07 21:35:24;;;;;;;1.02;0.80;;;;;;;;;;7366796;19;163042;-15
2021/12/07 21:37:55;;;;;;;0.82;0.50;;;;;;;;;;7367424;19;153974;-14
2021/12/07 21:40:27;;;;;;;0.75;0.60;;;;;;;;;;7367733;19;153613;-14
2021/12/07 21:43:01;;;;;;;1.30;0.50;;;;;;;;;;7366659;19;161814;-15
2021/12/07 21:45:33;;;;;;;0.60;0.60;;;;;;;;;;7366798;19;162515;-15
2021/12/07 21:48:06;;;;;;;1.38;0.47;;;;;;;;;;7367586;19;153908;-14
2021/12/07 21:50:40;;;;;;;0.70;0.70;;;;;;;;;;7367568;19;153810;-14
2021/12/07 21:53:11;;;;;;;0.50;0.50;;;;;;;;;;7366334;19;161881;-14
2021/12/07 21:55:51;;;;;;;0.77;0.57;;;;;;;;;;7364973;19;162903;-14
2021/12/07 21:58:25;;;;;;;1.08;0.60;;;;;;;;;;7337347;19;154270;-14
2021/12/07 22:00:58;;;;;;;0.43;0.43;;;;;;;;;;7335487;19;153487;-16
2021/12/07 22:03:32;;;;;;;0.57;0.50;;;;;;;;;;7337536;19;161843;-16
2021/12/07 22:06:12;;;;;;;0.70;0.70;;;;;;;;;;7337623;19;162405;-14
2021/12/07 22:08:48;;;;;;;0.68;0.50;;;;;;;;;;7337581;19;154002;-14
2021/12/07 22:11:21;;;;;;;0.60;0.60;;;;;;;;;;7337248;19;153806;-14
2021/12/07 22:13:59;;;;;;;0.63;0.40;;;;;;;;;;7336301;19;161768;-14
2021/12/07 22:16:37;;;;;;;0.47;0.47;;;;;;;;;;7335840;19;162528;-13
2021/12/07 22:19:09;;;;;;;2.17;0.43;;;;;;;;;;7336688;19;154324;-13
2021/12/07 22:21:44;;;;;;;0.60;0.60;;;;;;;;;;7336997;19;153646;-13
2021/12/07 22:24:18;;;;;;;0.50;0.50;;;;;;;;;;7335702;19;161995;-14
2021/12/07 22:26:49;;;;;;;0.50;0.50;;;;;;;;;;7336836;19;162303;-13
2021/12/07 22:29:25;;;;;;;0.65;0.52;;;;;;;;;;7337639;19;153902;-13
2021/12/07 22:32:04;;;;;;;0.88;0.50;;;;;;;;;;7336344;19;153522;-14
2021/12/07 22:34:39;;;;;;;0.40;0.40;;;;;;;;;;7336084;19;162185;-13
2021/12/07 22:37:12;;;;;;;0.52;0.52;;;;;;;;;;7335196;19;162485;-13
2021/12/07 22:39:48;;;;;;;0.80;0.47;;;;;;;;;;7336912;19;153999;-14
2021/12/07 22:42:20;;;;;;;0.70;0.40;;;;;;;;;;7335897;19;153554;-13
2021/12/07 22:44:55;;;;;;;0.50;0.35;;;;;;;;;;7335096;19;162045;-13
2021/12/07 22:47:28;;;;;;;0.40;0.40;;;;;;;;;;7336328;19;162404;-13
2021/12/07 22:50:01;;;;;;;0.33;0.33;;;;;;;;;;7336319;19;153922;-14
2021/12/07 22:52:33;;;;;;;0.75;0.50;;;;;;;;;;7336631;19;153741;-14
2021/12/07 22:55:05;;;;;;;0.45;0.45;;;;;;;;;;7335920;19;162086;-13
2021/12/07 22:57:37;;;;;;;0.40;0.40;;;;;;;;;;7334138;19;162597;-13
2021/12/07 23:00:23;;;;;;;0.30;0.30;;;;;;;;;;7335591;19;153971;-13
2021/12/07 23:02:57;;;;;;;0.47;0.47;;;;;;;;;;7335418;19;153661;-23
2021/12/07 23:05:30;;;;;;;0.40;0.40;;;;;;;;;;7335681;19;163199;-15
2021/12/07 23:08:01;;;;;;;0.53;0.30;;;;;;;;;;7334091;19;162343;-14
2021/12/07 23:10:34;;;;;;;0.60;0.50;;;;;;;;;;7335460;19;154015;-13
2021/12/07 23:13:08;;;;;;;0.40;0.40;;;;;;;;;;7335318;19;153513;-13
2021/12/07 23:15:43;;;;;;;0.50;0.50;;;;;;;;;;7335285;19;161883;-14
2021/12/07 23:18:19;;;;;;;0.30;0.30;;;;;;;;;;7332435;19;162506;-13
2021/12/07 23:20:52;;;;;;;0.30;0.30;;;;;;;;;;7334301;19;154049;-13
2021/12/07 23:23:25;;;;;;;0.47;0.47;;;;;;;;;;7335258;19;153969;-13
2021/12/07 23:25:57;;;;;;;0.75;0.40;;;;;;;;;;7335176;19;161817;-13
2021/12/07 23:28:31;;;;;;;0.38;0.38;;;;;;;;;;7335394;19;162371;-14
2021/12/07 23:31:08;;;;;;;0.30;0.30;;;;;;;;;;7334580;19;153964;-14
2021/12/07 23:33:43;;;;;;;0.40;0.40;;;;;;;;;;7335067;19;153540;-13
2021/12/07 23:36:17;;;;;;;0.50;0.40;;;;;;;;;;7334610;19;161972;-14
2021/12/07 23:38:51;;;;;;;0.30;0.30;;;;;;;;;;7334577;19;162546;-13
2021/12/07 23:41:23;;;;;;;0.40;0.40;;;;;;;;;;7333848;19;154159;-14
2021/12/07 23:43:58;;;;;;;0.30;0.30;;;;;;;;;;7333860;19;153635;-14
2021/12/07 23:46:32;;;;;;;0.65;0.45;;;;;;;;;;7334134;19;162033;-14
2021/12/07 23:49:03;;;;;;;0.40;0.38;;;;;;;;;;7334130;19;162549;-14
2021/12/07 23:51:36;;;;;;;0.38;0.38;;;;;;;;;;7333092;19;153931;-13
2021/12/07 23:54:08;;;;;;;0.50;0.50;;;;;;;;;;7334311;19;153523;-14
2021/12/07 23:56:39;;;;;;;0.30;0.30;;;;;;;;;;7331236;19;162080;-13
2021/12/07 23:59:10;;;;;;;0.45;0.30;;;;;;;;;;7333650;19;162346;-13
